Time;durP1;ratioP1;P1;durP2;ratioP2;P2;SDS_P1;SDS_P2;PMS_P1;PMS_P2;Temp;Humidity;BMP_temperature;BMP_pressure;BME280_temperature;BME280_humidity;BME280_pressure;Samples;Min_cycle;Max_cycle;Signal;HPM_P1;HPM_P2
2022/04/06 00:01:45;;;;;;;23.33;2.67;;;10.80;99.90;;;;;;5013145;28;20202;-62
2022/04/06 00:04:11;;;;;;;13.60;1.87;;;10.80;99.90;;;;;;5013233;28;20187;-62
2022/04/06 00:06:37;;;;;;;9.63;1.77;;;10.80;99.90;;;;;;5013334;28;20179;-62
2022/04/06 00:09:04;;;;;;;18.80;2.17;;;10.70;99.90;;;;;;5013211;28;20226;-63
2022/04/06 00:11:30;;;;;;;13.53;1.90;;;10.60;99.90;;;;;;5012935;28;20220;-63
2022/04/06 00:13:57;;;;;;;20.30;2.23;;;10.60;99.90;;;;;;5012835;28;20230;-63
2022/04/06 00:16:23;;;;;;;15.07;1.87;;;10.50;99.90;;;;;;5012997;28;20166;-63
2022/04/06 00:18:49;;;;;;;8.70;1.67;;;10.40;99.90;;;;;;5012919;28;20198;-63
2022/04/06 00:21:15;;;;;;;11.67;1.57;;;10.40;99.90;;;;;;5012811;28;20179;-63
2022/04/06 00:23:41;;;;;;;14.93;1.73;;;10.40;99.90;;;;;;5012747;28;20178;-63
2022/04/06 00:26:07;;;;;;;14.13;2.17;;;10.40;99.90;;;;;;5012657;28;20526;-63
2022/04/06 00:28:33;;;;;;;16.10;2.13;;;10.40;99.90;;;;;;5012831;28;20627;-64
2022/04/06 00:30:58;;;;;;;18.67;1.80;;;10.40;99.90;;;;;;5012723;28;20214;-64
2022/04/06 00:33:24;;;;;;;15.87;1.97;;;10.40;99.90;;;;;;5012821;28;20214;-64
2022/04/06 00:35:51;;;;;;;19.93;2.40;;;10.50;99.90;;;;;;5012568;28;20175;-64
2022/04/06 00:38:17;;;;;;;10.90;1.93;;;10.50;99.90;;;;;;5012386;28;20178;-63
2022/04/06 00:40:44;;;;;;;12.10;1.83;;;10.50;99.90;;;;;;5012565;28;20183;-64
2022/04/06 00:43:12;;;;;;;17.07;2.20;;;10.50;99.90;;;;;;5012516;28;20189;-62
2022/04/06 00:45:39;;;;;;;7.63;1.63;;;10.50;99.90;;;;;;5012337;28;20633;-63
2022/04/06 00:48:06;;;;;;;8.50;1.47;;;10.50;99.90;;;;;;5012424;28;20174;-63
2022/04/06 00:50:33;;;;;;;11.10;1.47;;;10.60;99.90;;;;;;5012397;28;20288;-63
2022/04/06 00:53:00;;;;;;;10.23;1.70;;;10.50;99.90;;;;;;5012347;28;20760;-62
2022/04/06 00:55:33;;;;;;;8.40;1.87;;;10.40;99.90;;;;;;5012430;28;20226;-62
2022/04/06 00:57:59;;;;;;;10.17;1.13;;;10.30;99.90;;;;;;5011466;28;20170;-62
2022/04/06 01:00:26;;;;;;;15.33;2.37;;;10.20;99.90;;;;;;5012245;28;20204;-64
2022/04/06 01:02:52;;;;;;;8.83;1.50;;;10.10;99.90;;;;;;5012109;28;20181;-64
2022/04/06 01:05:18;;;;;;;12.23;1.80;;;10.00;99.90;;;;;;5012049;28;20167;-62
2022/04/06 01:07:49;;;;;;;15.07;2.10;;;10.00;99.90;;;;;;5012013;28;20179;-62
2022/04/06 01:10:15;;;;;;;11.43;1.93;;;10.00;99.90;;;;;;5011872;28;20222;-63
2022/04/06 01:12:44;;;;;;;15.33;2.33;;;10.00;99.90;;;;;;5011867;28;20237;-63
2022/04/06 01:15:10;;;;;;;13.00;1.93;;;10.00;99.90;;;;;;5011962;28;20221;-63
2022/04/06 01:17:36;;;;;;;11.50;1.87;;;10.00;99.90;;;;;;5011918;28;20179;-63
2022/04/06 01:20:05;;;;;;;11.53;1.63;;;10.00;99.90;;;;;;5011895;28;20174;-63
2022/04/06 01:22:31;;;;;;;13.53;2.33;;;10.00;99.90;;;;;;5011718;28;20222;-64
2022/04/06 01:24:57;;;;;;;18.63;2.13;;;9.90;99.90;;;;;;5011919;28;20170;-63
2022/04/06 01:27:24;;;;;;;11.47;2.30;;;10.00;99.90;;;;;;5011904;28;20190;-63
2022/04/06 01:29:52;;;;;;;15.40;2.33;;;10.10;99.90;;;;;;5011682;28;20260;-62
2022/04/06 01:32:23;;;;;;;12.13;1.80;;;10.10;99.90;;;;;;5011729;28;20213;-63
2022/04/06 01:34:50;;;;;;;13.83;1.73;;;10.10;99.90;;;;;;5011627;28;20175;-64
2022/04/06 01:37:17;;;;;;;21.23;2.70;;;10.20;99.90;;;;;;5011668;28;20174;-64
2022/04/06 01:39:47;;;;;;;13.40;1.90;;;10.30;99.90;;;;;;5011749;28;20202;-64
2022/04/06 01:42:15;;;;;;;11.80;1.57;;;10.30;99.90;;;;;;5011712;28;20178;-64
2022/04/06 01:44:44;;;;;;;12.63;1.33;;;10.40;99.90;;;;;;5011619;28;20204;-62
2022/04/06 01:47:11;;;;;;;9.30;1.27;;;10.40;99.90;;;;;;5011531;28;20170;-63
2022/04/06 01:52:22;;;;;;;9.10;1.33;;;10.30;99.90;;;;;;5011769;28;20174;-64
2022/04/06 01:54:59;;;;;;;3.73;0.83;;;10.30;99.90;;;;;;5011612;28;20244;-63
2022/04/06 01:57:25;;;;;;;11.87;1.10;;;10.30;99.90;;;;;;5011386;28;20189;-62
2022/04/06 01:59:51;;;;;;;6.63;1.53;;;10.30;99.90;;;;;;5011364;28;20174;-63
2022/04/06 02:02:19;;;;;;;10.40;1.40;;;10.30;99.90;;;;;;5011485;28;20177;-62
2022/04/06 02:04:45;;;;;;;5.17;1.43;;;10.20;99.90;;;;;;5011441;28;20175;-62
2022/04/06 02:07:13;;;;;;;10.07;1.63;;;10.10;99.90;;;;;;5011535;28;20514;-61
2022/04/06 02:09:40;;;;;;;10.00;1.70;;;10.10;99.90;;;;;;5014885;28;20680;-62
2022/04/06 02:12:07;;;;;;;2.20;0.97;;;10.10;99.90;;;;;;5015162;28;20188;-61
2022/04/06 02:14:34;;;;;;;9.27;1.50;;;10.10;99.90;;;;;;5015263;28;20194;-61
2022/04/06 02:17:01;;;;;;;6.93;1.37;;;10.00;99.90;;;;;;5015324;28;20175;-62
2022/04/06 02:19:27;;;;;;;9.33;1.27;;;10.00;99.90;;;;;;5015216;28;20198;-62
2022/04/06 02:21:53;;;;;;;5.43;1.50;;;10.00;99.90;;;;;;5015308;28;20174;-62
2022/04/06 02:24:18;;;;;;;8.07;1.63;;;9.90;99.90;;;;;;5015158;28;20641;-62
2022/04/06 02:26:45;;;;;;;8.50;1.43;;;9.90;99.90;;;;;;5015147;28;20623;-62
2022/04/06 02:29:11;;;;;;;8.50;1.70;;;9.90;99.90;;;;;;5015023;28;20241;-62
2022/04/06 02:31:37;;;;;;;13.30;1.60;;;9.90;99.90;;;;;;5014882;28;20182;-62
2022/04/06 02:34:03;;;;;;;8.70;2.30;;;9.80;99.90;;;;;;5015058;28;20208;-62
2022/04/06 02:36:29;;;;;;;6.20;1.57;;;9.80;99.90;;;;;;5014834;28;20167;-63
2022/04/06 02:38:55;;;;;;;13.60;1.80;;;9.80;99.90;;;;;;5014856;28;20212;-62
2022/04/06 02:41:21;;;;;;;10.23;2.23;;;9.80;99.90;;;;;;5014825;28;20525;-62
2022/04/06 02:43:46;;;;;;;12.50;2.10;;;9.80;99.90;;;;;;5014725;28;20175;-62
2022/04/06 02:46:13;;;;;;;12.30;1.50;;;9.80;99.90;;;;;;5013381;28;20171;-62
2022/04/06 02:48:39;;;;;;;6.50;1.53;;;9.80;99.90;;;;;;5014675;28;20171;-61
2022/04/06 02:51:05;;;;;;;6.93;1.60;;;9.80;99.90;;;;;;5014599;28;20198;-62
2022/04/06 02:53:31;;;;;;;10.77;1.57;;;9.80;99.90;;;;;;5014460;28;20179;-62
2022/04/06 02:55:57;;;;;;;6.37;1.30;;;9.70;99.90;;;;;;5014541;28;20274;-61
2022/04/06 02:58:22;;;;;;;10.30;1.90;;;9.80;99.90;;;;;;5014479;28;20175;-62
2022/04/06 03:00:48;;;;;;;7.00;1.40;;;9.80;99.90;;;;;;5014644;28;20216;-62
2022/04/06 03:03:14;;;;;;;6.07;1.43;;;9.80;99.90;;;;;;5014303;28;20179;-62
2022/04/06 03:05:40;;;;;;;17.10;1.90;;;9.80;99.90;;;;;;5014325;28;20182;-62
2022/04/06 03:08:06;;;;;;;18.73;2.47;;;9.80;99.90;;;;;;5014505;28;20185;-62
2022/04/06 03:10:33;;;;;;;10.00;1.80;;;9.80;99.90;;;;;;5014154;28;20696;-62
2022/04/06 03:12:59;;;;;;;5.63;1.20;;;9.80;99.90;;;;;;5014112;28;20241;-63
2022/04/06 03:15:24;;;;;;;7.40;1.27;;;9.70;99.90;;;;;;5014218;28;20636;-62
2022/04/06 03:17:50;;;;;;;4.53;0.90;;;9.70;99.90;;;;;;5014172;28;20178;-62
2022/04/06 03:20:16;;;;;;;4.50;1.00;;;9.70;99.90;;;;;;5011924;28;20175;-62
2022/04/06 03:22:42;;;;;;;6.50;1.27;;;9.70;99.90;;;;;;5014006;28;20174;-62
2022/04/06 03:25:09;;;;;;;6.03;1.30;;;9.70;99.90;;;;;;5014065;28;20171;-63
2022/04/06 03:27:36;;;;;;;2.43;0.80;;;9.70;99.90;;;;;;5013995;28;20177;-63
2022/04/06 03:30:03;;;;;;;6.70;1.30;;;9.70;99.90;;;;;;5013976;28;20216;-63
2022/04/06 03:32:29;;;;;;;5.50;1.00;;;9.70;99.90;;;;;;5013963;28;20171;-62
2022/04/06 03:34:55;;;;;;;6.97;1.40;;;9.70;99.90;;;;;;5013825;28;20177;-63
2022/04/06 03:37:21;;;;;;;4.73;0.93;;;9.10;99.90;;;;;;5012555;28;20194;-62
2022/04/06 03:39:47;;;;;;;7.03;1.10;;;9.70;99.90;;;;;;5013671;28;20174;-63
2022/04/06 03:42:12;;;;;;;3.70;1.03;;;9.80;99.90;;;;;;5013816;28;20175;-63
2022/04/06 03:44:38;;;;;;;4.63;1.07;;;9.80;99.90;;;;;;5013599;28;20167;-63
2022/04/06 03:47:04;;;;;;;5.07;0.97;;;9.80;99.90;;;;;;5013686;28;20175;-63
2022/04/06 03:49:31;;;;;;;6.23;0.80;;;9.80;99.90;;;;;;5013471;28;20641;-63
2022/04/06 03:51:57;;;;;;;4.07;0.70;;;9.80;99.90;;;;;;5013411;28;20660;-63
2022/04/06 03:54:23;;;;;;;1.03;0.50;;;9.80;99.90;;;;;;5013299;28;20635;-63
2022/04/06 03:56:49;;;;;;;3.13;0.50;;;9.80;99.90;;;;;;5013424;28;20182;-61
2022/04/06 03:59:14;;;;;;;3.20;0.60;;;9.80;99.90;;;;;;5013327;28;20174;-61
2022/04/06 04:01:40;;;;;;;3.17;0.40;;;9.80;99.90;;;;;;5013569;28;20471;-61
2022/04/06 04:04:06;;;;;;;1.87;0.50;;;9.80;99.90;;;;;;5013231;28;20205;-61
2022/04/06 04:06:32;;;;;;;0.70;0.30;;;9.80;99.90;;;;;;5013258;28;20194;-62
2022/04/06 04:08:58;;;;;;;1.00;0.20;;;9.80;99.90;;;;;;5013148;28;20174;-61
2022/04/06 04:11:24;;;;;;;0.93;0.20;;;9.80;99.90;;;;;;5013154;28;20230;-62
2022/04/06 04:13:50;;;;;;;0.23;0.23;;;9.80;99.90;;;;;;5013031;28;20249;-62
2022/04/06 04:16:16;;;;;;;1.43;0.50;;;9.80;99.90;;;;;;5013145;28;20206;-62
2022/04/06 04:18:42;;;;;;;6.37;0.80;;;9.80;99.90;;;;;;5013173;28;20167;-62
2022/04/06 04:23:52;;;;;;;7.13;0.93;;;9.80;99.90;;;;;;5012936;28;20228;-62
2022/04/06 04:26:18;;;;;;;4.57;1.13;;;9.80;99.90;;;;;;5012844;28;20166;-62
2022/04/06 04:28:44;;;;;;;14.27;1.47;;;9.80;99.90;;;;;;5012759;28;20171;-61
2022/04/06 04:31:10;;;;;;;5.63;1.20;;;9.80;99.90;;;;;;5012530;28;20206;-62
2022/04/06 04:33:35;;;;;;;12.30;1.40;;;9.80;99.90;;;;;;5012755;28;20237;-62
2022/04/06 04:36:01;;;;;;;19.60;1.60;;;9.80;99.90;;;;;;5013075;28;20190;-62
2022/04/06 04:38:27;;;;;;;15.10;1.57;;;9.80;99.90;;;;;;5012627;28;20628;-61
2022/04/06 04:40:54;;;;;;;16.80;1.80;;;9.90;99.90;;;;;;5012535;28;20185;-62
2022/04/06 04:43:20;;;;;;;10.13;2.07;;;9.90;99.90;;;;;;5011285;28;20697;-62
2022/04/06 04:45:46;;;;;;;15.90;1.90;;;9.90;99.90;;;;;;5012394;28;20708;-62
2022/04/06 04:48:12;;;;;;;17.07;2.10;;;9.90;99.90;;;;;;5012401;28;20261;-62
2022/04/06 04:50:38;;;;;;;10.97;1.53;;;9.90;99.90;;;;;;5012330;28;20237;-61
2022/04/06 04:53:05;;;;;;;20.37;1.90;;;9.90;99.90;;;;;;5012269;28;20166;-61
2022/04/06 04:55:32;;;;;;;5.83;1.10;;;10.00;99.90;;;;;;5012489;28;20196;-61
2022/04/06 04:57:58;;;;;;;13.20;1.87;;;10.00;99.90;;;;;;5012005;28;20179;-61
2022/04/06 05:00:24;;;;;;;15.17;1.43;;;10.00;99.90;;;;;;5011927;28;20175;-61
2022/04/06 05:02:49;;;;;;;15.20;1.70;;;10.00;99.90;;;;;;5010600;28;20174;-61
2022/04/06 05:05:15;;;;;;;6.27;0.90;;;10.00;99.90;;;;;;5011885;28;20277;-61
2022/04/06 05:07:41;;;;;;;12.27;1.40;;;10.00;99.90;;;;;;5012094;28;20309;-61
2022/04/06 05:10:08;;;;;;;12.00;1.57;;;10.00;99.90;;;;;;5011716;28;20702;-62
2022/04/06 05:12:35;;;;;;;12.23;1.83;;;10.00;99.90;;;;;;5011581;28;20241;-63
2022/04/06 05:15:01;;;;;;;13.27;1.67;;;10.00;99.90;;;;;;5011756;28;20261;-63
2022/04/06 05:17:28;;;;;;;11.23;1.50;;;10.00;99.90;;;;;;5011570;28;20250;-62
2022/04/06 05:19:54;;;;;;;5.60;1.00;;;10.00;99.90;;;;;;5011685;28;20175;-62
2022/04/06 05:22:20;;;;;;;12.30;1.60;;;10.00;99.90;;;;;;5011684;28;20330;-62
2022/04/06 05:24:47;;;;;;;12.70;1.33;;;10.00;99.90;;;;;;5011625;28;20178;-63
2022/04/06 05:27:12;;;;;;;9.33;1.10;;;10.00;99.90;;;;;;5011664;28;20677;-63
2022/04/06 05:29:39;;;;;;;7.17;1.90;;;10.00;99.90;;;;;;5011570;28;20256;-62
2022/04/06 05:32:05;;;;;;;6.60;1.20;;;10.00;99.90;;;;;;5011454;28;20174;-62
2022/04/06 05:34:31;;;;;;;15.00;1.60;;;10.00;99.90;;;;;;5011319;28;20170;-63
2022/04/06 05:36:56;;;;;;;11.67;1.17;;;10.10;99.90;;;;;;5011255;28;20167;-63
2022/04/06 05:39:22;;;;;;;7.93;1.13;;;10.00;99.90;;;;;;5011530;28;20173;-63
2022/04/06 05:41:49;;;;;;;10.90;1.33;;;10.00;99.90;;;;;;5011193;28;20182;-63
2022/04/06 05:44:16;;;;;;;14.63;1.43;;;10.00;99.90;;;;;;5010871;28;20201;-63
2022/04/06 05:46:42;;;;;;;17.40;1.33;;;10.00;99.90;;;;;;5011354;28;20182;-62
2022/04/06 05:49:08;;;;;;;8.13;1.40;;;10.00;99.90;;;;;;5009928;28;20167;-62
2022/04/06 05:51:34;;;;;;;7.80;1.20;;;10.00;99.90;;;;;;5011133;28;20210;-63
2022/04/06 05:54:02;;;;;;;13.13;1.70;;;10.00;99.90;;;;;;5010951;28;20637;-63
2022/04/06 05:56:28;;;;;;;14.00;1.43;;;10.10;99.90;;;;;;5011042;28;20217;-63
2022/04/06 05:58:54;;;;;;;11.87;1.97;;;10.10;99.90;;;;;;5011300;28;20329;-63
2022/04/06 06:01:20;;;;;;;13.47;1.40;;;10.10;99.90;;;;;;5010926;28;20709;-62
2022/04/06 06:03:46;;;;;;;12.23;1.80;;;10.10;99.90;;;;;;5011254;28;20317;-62
2022/04/06 06:06:12;;;;;;;8.90;1.10;;;10.10;99.90;;;;;;5010025;28;20277;-63
2022/04/06 06:08:37;;;;;;;14.73;1.70;;;10.10;99.90;;;;;;5011298;28;20174;-63
2022/04/06 06:11:05;;;;;;;13.07;1.67;;;10.20;99.90;;;;;;5011170;28;20311;-63
2022/04/06 06:13:31;;;;;;;13.50;1.40;;;10.20;99.90;;;;;;5011063;28;20721;-64
2022/04/06 06:15:57;;;;;;;12.70;2.23;;;10.20;99.90;;;;;;5011042;28;20174;-63
2022/04/06 06:18:25;;;;;;;11.90;2.23;;;10.10;99.90;;;;;;5010900;28;20171;-62
2022/04/06 06:20:51;;;;;;;17.17;2.27;;;10.10;99.90;;;;;;5010930;28;20189;-63
2022/04/06 06:23:16;;;;;;;16.30;2.10;;;10.10;99.90;;;;;;5010786;28;20573;-62
2022/04/06 06:25:42;;;;;;;12.73;2.00;;;10.00;99.90;;;;;;5010795;28;20189;-63
2022/04/06 06:28:08;;;;;;;13.90;1.90;;;10.00;99.90;;;;;;5010964;28;20194;-62
2022/04/06 06:30:34;;;;;;;17.13;1.80;;;9.90;99.90;;;;;;5010503;28;20214;-62
2022/04/06 06:33:00;;;;;;;16.40;1.83;;;10.20;99.90;;;;;;5011027;28;20230;-62
2022/04/06 06:35:26;;;;;;;17.00;2.03;;;9.90;99.90;;;;;;5010685;28;20671;-64
2022/04/06 06:37:55;;;;;;;10.97;1.80;;;9.90;99.90;;;;;;5010645;28;20179;-63
2022/04/06 06:40:24;;;;;;;12.40;2.20;;;9.90;99.90;;;;;;5010746;28;20511;-63
2022/04/06 06:42:50;;;;;;;21.33;1.90;;;9.90;99.90;;;;;;5010570;28;20257;-63
2022/04/06 06:45:16;;;;;;;17.40;1.83;;;9.90;99.90;;;;;;5010648;28;20262;-62
2022/04/06 06:47:43;;;;;;;11.43;1.60;;;10.00;99.90;;;;;;5010860;28;20190;-64
2022/04/06 06:50:14;;;;;;;9.03;1.87;;;10.00;99.90;;;;;;5010493;28;20565;-63
2022/04/06 06:52:40;;;;;;;8.37;1.47;;;10.00;99.90;;;;;;5009485;28;20711;-63
2022/04/06 06:55:10;;;;;;;18.93;1.60;;;10.00;99.90;;;;;;5011553;28;20170;-62
2022/04/06 06:57:36;;;;;;;5.40;1.13;;;10.00;99.90;;;;;;5014182;28;20185;-62
2022/04/06 07:00:06;;;;;;;15.90;2.60;;;10.10;99.90;;;;;;5012824;28;20185;-61
2022/04/06 07:02:31;;;;;;;8.60;1.53;;;10.10;99.90;;;;;;5014124;28;20675;-62
2022/04/06 07:04:57;;;;;;;9.60;1.20;;;10.10;99.90;;;;;;5014289;28;20170;-63
2022/04/06 07:07:23;;;;;;;9.90;1.90;;;10.20;99.90;;;;;;5014160;28;20673;-63
2022/04/06 07:09:48;;;;;;;11.90;1.87;;;10.20;99.90;;;;;;5013908;28;20202;-63
2022/04/06 07:12:14;;;;;;;10.13;1.70;;;10.30;99.90;;;;;;5013749;28;20182;-62
2022/04/06 07:14:40;;;;;;;8.17;1.70;;;10.30;99.90;;;;;;5014034;28;20167;-63
2022/04/06 07:17:06;;;;;;;15.70;1.60;;;10.30;99.90;;;;;;5012650;28;20565;-63
2022/04/06 07:19:32;;;;;;;13.13;1.93;;;10.40;99.90;;;;;;5013808;28;20167;-63
2022/04/06 07:21:58;;;;;;;15.77;1.53;;;10.40;99.90;;;;;;5012530;28;20257;-64
2022/04/06 07:24:23;;;;;;;11.47;1.40;;;10.40;99.90;;;;;;5013670;28;20174;-63
2022/04/06 07:26:49;;;;;;;12.30;1.50;;;10.50;99.90;;;;;;5013644;28;20175;-64
2022/04/06 07:29:15;;;;;;;14.43;2.27;;;10.50;99.90;;;;;;5013637;28;20178;-63
2022/04/06 07:31:42;;;;;;;12.77;1.50;;;10.60;99.90;;;;;;5012267;28;20218;-63
2022/04/06 07:34:08;;;;;;;11.10;1.60;;;10.60;99.90;;;;;;5013296;28;20182;-63
2022/04/06 07:36:34;;;;;;;11.40;1.70;;;10.60;99.90;;;;;;5013499;28;20237;-63
2022/04/06 07:39:02;;;;;;;9.87;1.77;;;10.60;99.90;;;;;;5013411;28;20224;-62
2022/04/06 07:41:28;;;;;;;17.97;2.53;;;10.60;99.90;;;;;;5013522;28;20174;-63
2022/04/06 07:43:54;;;;;;;13.40;1.80;;;10.70;99.90;;;;;;5013223;28;20199;-62
2022/04/06 07:46:20;;;;;;;12.13;2.10;;;10.80;99.90;;;;;;5013282;28;20201;-62
2022/04/06 07:48:46;;;;;;;11.33;2.00;;;10.80;99.90;;;;;;5011902;28;20170;-61
2022/04/06 07:51:12;;;;;;;10.47;1.87;;;10.80;99.90;;;;;;5013294;28;20221;-62
2022/04/06 07:53:38;;;;;;;17.67;2.07;;;10.80;99.90;;;;;;5012957;28;20257;-63
2022/04/06 07:56:05;;;;;;;12.30;1.80;;;10.90;99.90;;;;;;5013197;28;20171;-62
2022/04/06 07:58:30;;;;;;;11.83;1.83;;;10.80;99.90;;;;;;5013019;28;20186;-62
2022/04/06 08:00:56;;;;;;;11.70;2.07;;;10.80;99.90;;;;;;5013045;28;20174;-62
2022/04/06 08:03:22;;;;;;;13.80;2.33;;;10.90;99.90;;;;;;5012983;28;20162;-62
2022/04/06 08:05:50;;;;;;;21.00;3.13;;;10.90;99.90;;;;;;5012478;28;20661;-62
2022/04/06 08:08:16;;;;;;;14.57;1.77;;;11.00;99.90;;;;;;5012732;28;20396;-63
2022/04/06 08:10:41;;;;;;;15.87;2.37;;;11.00;99.90;;;;;;5012774;28;20391;-62
2022/04/06 08:13:07;;;;;;;20.20;2.80;;;11.10;99.90;;;;;;5012529;28;20280;-62
2022/04/06 08:15:33;;;;;;;18.27;2.13;;;11.10;99.90;;;;;;5012954;28;20171;-62
2022/04/06 08:17:59;;;;;;;15.43;2.37;;;11.10;99.90;;;;;;5012888;28;20229;-63
2022/04/06 08:20:26;;;;;;;17.73;2.03;;;11.20;99.90;;;;;;5012672;28;20202;-62
2022/04/06 08:22:52;;;;;;;16.43;2.40;;;11.20;99.90;;;;;;5012702;28;20182;-63
2022/04/06 08:25:18;;;;;;;21.10;1.87;;;11.10;99.90;;;;;;5012238;28;20185;-63
2022/04/06 08:27:44;;;;;;;26.97;2.43;;;11.20;99.90;;;;;;5012354;28;20167;-60
2022/04/06 08:30:12;;;;;;;17.33;2.10;;;11.20;99.90;;;;;;5012550;28;20712;-61
2022/04/06 08:32:38;;;;;;;15.10;2.40;;;11.30;99.90;;;;;;5012413;28;20171;-62
2022/04/06 08:35:08;;;;;;;16.23;2.07;;;11.40;99.90;;;;;;5012299;28;20177;-61
2022/04/06 08:37:34;;;;;;;19.43;2.60;;;11.40;99.90;;;;;;5012248;28;20251;-62
2022/04/06 08:40:00;;;;;;;16.43;2.67;;;11.50;99.90;;;;;;5012166;28;20533;-62
2022/04/06 08:42:32;;;;;;;15.40;1.93;;;11.50;99.90;;;;;;5012344;28;20182;-60
2022/04/06 08:45:00;;;;;;;20.83;3.27;;;11.50;99.90;;;;;;5012371;28;20171;-62
2022/04/06 08:47:28;;;;;;;23.70;2.90;;;11.60;99.90;;;;;;5012150;28;20170;-62
2022/04/06 08:49:55;;;;;;;15.40;2.07;;;11.80;99.90;;;;;;5012402;28;20205;-62
2022/04/06 08:52:22;;;;;;;17.80;2.67;;;11.80;99.90;;;;;;5010636;28;20644;-62
2022/04/06 08:54:47;;;;;;;23.53;3.77;;;11.80;99.90;;;;;;5011925;28;20209;-62
2022/04/06 08:57:14;;;;;;;15.57;2.03;;;11.80;99.90;;;;;;5011993;28;20208;-62
2022/04/06 08:59:39;;;;;;;18.37;2.60;;;11.90;99.90;;;;;;5010610;28;20522;-62
2022/04/06 09:02:05;;;;;;;16.90;2.07;;;11.80;99.90;;;;;;5011810;28;20235;-62
2022/04/06 09:04:35;;;;;;;19.10;2.17;;;11.80;99.90;;;;;;5011846;28;20174;-62
2022/04/06 09:07:08;;;;;;;13.67;2.27;;;11.90;99.90;;;;;;5011721;28;20171;-63
2022/04/06 09:09:35;;;;;;;12.67;1.93;;;12.00;99.90;;;;;;5011895;28;20186;-63
2022/04/06 09:12:08;;;;;;;12.73;1.70;;;12.10;99.90;;;;;;5011792;28;20221;-61
2022/04/06 09:14:34;;;;;;;13.57;2.20;;;12.10;99.90;;;;;;5011754;28;20190;-63
2022/04/06 09:17:02;;;;;;;20.03;2.30;;;12.10;99.90;;;;;;5011356;28;20174;-62
2022/04/06 09:19:27;;;;;;;12.00;1.80;;;12.10;99.90;;;;;;5011037;28;20197;-62
2022/04/06 09:21:55;;;;;;;17.93;2.37;;;12.10;99.90;;;;;;5011697;28;20653;-63
2022/04/06 09:24:24;;;;;;;11.73;1.27;;;12.20;99.90;;;;;;5011492;28;20187;-62
2022/04/06 09:27:01;;;;;;;14.97;2.50;;;12.10;99.90;;;;;;5011580;28;20174;-62
2022/04/06 09:29:27;;;;;;;12.17;2.23;;;12.10;99.90;;;;;;5011395;28;20173;-62
2022/04/06 09:31:53;;;;;;;7.00;1.07;;;12.10;99.90;;;;;;5011453;28;20175;-62
2022/04/06 09:34:23;;;;;;;17.30;1.90;;;12.10;99.90;;;;;;5011343;28;20185;-62
2022/04/06 09:36:56;;;;;;;13.43;1.80;;;12.20;99.90;;;;;;5011333;28;20653;-62
2022/04/06 09:39:42;;;;;;;8.17;1.70;;;12.20;99.90;;;;;;5010037;28;20628;-63
2022/04/06 09:42:08;;;;;;;10.63;2.13;;;12.30;99.90;;;;;;5011151;28;20249;-63
2022/04/06 09:47:40;;;;;;;10.57;1.70;;;12.60;99.90;;;;;;5011567;28;20630;-62
2022/04/06 09:50:12;;;;;;;9.27;1.27;;;12.90;99.90;;;;;;5010905;28;20581;-63
2022/04/06 09:52:38;;;;;;;3.37;0.87;;;13.10;99.90;;;;;;5010942;28;20252;-62
2022/04/06 09:55:09;;;;;;;9.43;1.47;;;13.00;99.90;;;;;;5009626;28;20533;-63
2022/04/06 09:57:55;;;;;;;6.53;1.10;;;13.20;99.90;;;;;;5011080;28;20194;-64
2022/04/06 10:00:29;;;;;;;6.38;1.02;;;14.50;99.90;;;;;;5011111;28;20190;-61
2022/04/06 10:03:13;;;;;;;10.75;1.52;;;14.10;99.90;;;;;;5011074;28;20206;-63
2022/04/06 10:05:42;;;;;;;7.30;1.30;;;13.70;99.90;;;;;;5010933;28;20700;-62
2022/04/06 10:08:09;;;;;;;14.45;1.67;;;13.20;99.90;;;;;;5010995;28;20177;-64
2022/04/06 10:10:38;;;;;;;10.27;1.30;;;13.10;99.90;;;;;;5010786;28;20222;-62
2022/04/06 10:13:04;;;;;;;4.57;0.87;;;12.80;99.90;;;;;;5010737;28;20226;-64
2022/04/06 10:15:31;;;;;;;7.10;1.60;;;12.60;99.90;;;;;;5009567;28;20730;-63
2022/04/06 10:17:57;;;;;;;10.33;1.80;;;12.60;99.90;;;;;;5009581;28;20181;-64
2022/04/06 10:20:53;;;;;;;11.70;1.17;;;12.50;99.90;;;;;;5010798;28;20163;-63
2022/04/06 10:23:42;;;;;;;8.97;1.40;;;12.90;99.90;;;;;;5010620;28;20205;-63
2022/04/06 10:26:26;;;;;;;14.57;2.53;;;13.00;99.90;;;;;;5011193;28;20171;-63
2022/04/06 10:28:52;;;;;;;8.83;1.27;;;13.00;99.90;;;;;;5011508;28;20438;-63
2022/04/06 10:31:22;;;;;;;15.77;1.57;;;12.90;99.90;;;;;;5014192;28;20544;-63
2022/04/06 10:33:49;;;;;;;5.87;1.20;;;12.90;99.90;;;;;;5014454;28;20186;-62
2022/04/06 10:36:20;;;;;;;4.83;0.93;;;12.90;99.90;;;;;;5013449;28;20257;-63
2022/04/06 10:39:05;;;;;;;14.37;2.23;;;13.20;99.90;;;;;;5014325;28;20167;-63
2022/04/06 10:41:31;;;;;;;15.17;1.50;;;13.20;99.90;;;;;;5014587;28;20210;-64
2022/04/06 10:43:57;;;;;;;5.72;1.60;;;13.40;99.90;;;;;;5014412;28;20543;-64
2022/04/06 10:46:40;;;;;;;9.60;1.40;;;13.60;99.90;;;;;;5014308;28;20201;-64
2022/04/06 10:49:13;;;;;;;6.88;1.30;;;13.90;99.90;;;;;;5014066;28;20190;-63
2022/04/06 10:51:42;;;;;;;8.30;1.50;;;13.90;99.90;;;;;;5014098;28;20212;-62
2022/04/06 10:54:14;;;;;;;8.02;1.38;;;13.50;99.90;;;;;;5014221;28;20237;-62
2022/04/06 10:56:49;;;;;;;11.43;1.73;;;13.20;99.90;;;;;;5014062;28;20656;-64
2022/04/06 10:59:18;;;;;;;5.97;1.40;;;12.90;99.90;;;;;;5014155;28;20171;-63
2022/04/06 11:01:46;;;;;;;5.63;1.10;;;12.90;99.90;;;;;;5014087;28;20238;-63
2022/04/06 11:04:22;;;;;;;9.07;1.10;;;12.90;99.90;;;;;;5013772;28;20175;-63
2022/04/06 11:06:56;;;;;;;7.65;1.20;;;13.30;99.90;;;;;;5013923;28;20185;-64
2022/04/06 11:12:26;;;;;;;8.20;1.33;;;13.90;99.90;;;;;;5013982;28;20288;-64
2022/04/06 11:14:58;;;;;;;7.97;1.25;;;14.20;99.90;;;;;;5013938;28;20253;-61
2022/04/06 11:19:59;;;;;;;8.60;1.52;;;15.00;99.90;;;;;;5013691;28;20182;-62
2022/04/06 11:22:25;;;;;;;12.75;1.70;;;14.90;99.90;;;;;;5013409;28;20202;-63
2022/04/06 11:24:54;;;;;;;11.25;1.88;;;15.20;99.90;;;;;;5013783;28;20556;-63
2022/04/06 11:27:31;;;;;;;12.38;1.58;;;15.70;99.90;;;;;;5013605;28;20177;-64
2022/04/06 11:30:13;;;;;;;9.00;1.27;;;17.40;99.90;;;;;;5013480;28;20213;-63
2022/04/06 11:32:55;;;;;;;8.57;1.02;;;16.60;99.90;;;;;;5013543;28;20687;-62
2022/04/06 11:35:28;;;;;;;6.10;1.27;;;16.70;99.90;;;;;;5013596;28;20179;-63
2022/04/06 11:37:54;;;;;;;8.18;1.58;;;16.20;99.90;;;;;;5012068;28;20179;-62
2022/04/06 11:40:22;;;;;;;7.43;1.40;;;16.00;99.90;;;;;;5012755;28;20190;-63
2022/04/06 11:42:49;;;;;;;9.52;1.30;;;15.00;99.90;;;;;;5013256;28;20213;-61
2022/04/06 11:45:23;;;;;;;10.57;1.92;;;15.10;99.90;;;;;;5013532;28;20181;-63
2022/04/06 11:47:56;;;;;;;7.90;1.48;;;14.80;99.90;;;;;;5013147;28;20193;-63
2022/04/06 11:50:30;;;;;;;6.22;1.10;;;14.50;99.90;;;;;;5013117;28;20329;-62
2022/04/06 11:52:59;;;;;;;5.82;0.82;;;14.70;99.90;;;;;;5013018;28;20230;-62
2022/04/06 11:55:48;;;;;;;6.47;1.20;;;15.00;99.90;;;;;;5012677;28;20198;-62
2022/04/06 11:58:36;;;;;;;8.82;1.02;;;14.70;99.90;;;;;;5012975;28;20277;-62
2022/04/06 12:01:14;;;;;;;5.33;0.90;;;12.60;99.90;;;;;;5012805;28;20175;-62
2022/04/06 12:03:42;;;;;;;8.07;1.10;;;11.50;99.90;;;;;;5011646;28;20536;-62
2022/04/06 12:06:14;;;;;;;5.10;0.73;;;10.60;99.90;;;;;;5012856;28;20181;-64
2022/04/06 12:08:44;;;;;;;3.87;1.00;;;9.90;99.90;;;;;;5012989;28;20266;-62
2022/04/06 12:11:10;;;;;;;4.27;0.90;;;10.30;99.90;;;;;;5012936;28;20232;-62
2022/04/06 12:13:41;;;;;;;7.80;1.10;;;10.10;99.90;;;;;;5012432;28;20272;-62
2022/04/06 12:16:08;;;;;;;7.53;0.80;;;9.80;99.90;;;;;;5012826;28;20266;-62
2022/04/06 12:18:37;;;;;;;5.10;0.70;;;9.70;99.90;;;;;;5012716;28;20203;-62
2022/04/06 12:21:03;;;;;;;4.80;1.00;;;9.70;99.90;;;;;;5012631;28;20197;-62
2022/04/06 12:23:29;;;;;;;4.13;0.73;;;9.70;99.90;;;;;;5012532;28;20174;-62
2022/04/06 12:25:56;;;;;;;5.13;0.90;;;9.60;99.90;;;;;;5012537;28;20183;-62
2022/04/06 12:28:23;;;;;;;7.93;0.80;;;9.50;99.90;;;;;;5012386;28;20167;-62
2022/04/06 12:30:55;;;;;;;2.73;0.70;;;9.60;99.90;;;;;;5012410;28;20576;-63
2022/04/06 12:33:37;;;;;;;3.97;0.53;;;9.70;99.90;;;;;;5012729;28;20182;-62
2022/04/06 12:36:14;;;;;;;2.47;0.53;;;9.60;99.90;;;;;;5012571;28;20185;-63
2022/04/06 12:38:42;;;;;;;3.63;0.50;;;9.60;99.90;;;;;;5012290;28;20637;-61
2022/04/06 12:41:13;;;;;;;5.53;1.00;;;10.70;99.90;;;;;;5012240;28;20240;-62
2022/04/06 12:43:48;;;;;;;4.43;0.63;;;11.70;99.90;;;;;;5012052;28;20185;-63
2022/04/06 12:46:44;;;;;;;7.00;1.10;;;11.50;99.90;;;;;;5012405;28;20190;-63
2022/04/06 12:49:36;;;;;;;1.63;0.60;;;11.40;99.90;;;;;;5012097;28;20170;-62
2022/04/06 12:52:08;;;;;;;5.37;0.80;;;10.90;99.90;;;;;;5010024;28;20206;-62
2022/04/06 12:54:36;;;;;;;7.53;1.00;;;10.80;99.90;;;;;;5011682;28;20166;-62
2022/04/06 12:57:16;;;;;;;4.60;0.70;;;10.80;99.90;;;;;;5011975;28;20232;-62
2022/04/06 12:59:45;;;;;;;4.90;0.93;;;11.30;99.90;;;;;;5011980;28;20545;-62
2022/04/06 13:02:32;;;;;;;8.40;1.03;;;11.40;99.90;;;;;;5011879;28;20178;-62